Austin, Arkansas
Current Conditions -  °F | °C
As of 2:58 PM on Wednesday 17 Dec 2014 (Local Time) from KLRF Reporting Station
Overcast Overcast  
Wind Chill: 40°   Ceiling: 9000
Heat Index: 40°   Visibility: 10mi
Dew Point: 28°   Wind: 2mph
Humidity: 61%   Direction: 80°E
Pressure: 30.26"   Gusts: NA
Location:  35°N, 91.98°W
Report Text: KLRF 172058Z AUTO 08002KT 10SM OVC090 05/M02 A3026 RMK AO2 SLP252 T00471022 57023
Loading
Personal Weather Stations






























Interactive Weather Map New forecast layout! Learn more

10-Day Weather Forecast

Advertisements
Track Severe Weather on mobile